createdAt,value
2018-08-31T00:01:35.174Z,81.95
2018-08-31T00:04:41.636Z,82.38
2018-08-31T00:07:27.582Z,82.70
2018-08-31T00:11:12.750Z,82.31
2018-08-31T00:13:41.683Z,82.76
2018-08-31T00:16:10.427Z,83.06
2018-08-31T00:18:39.613Z,83.22
2018-08-31T00:21:08.448Z,83.87
2018-08-31T00:23:49.124Z,83.88
2018-08-31T00:26:29.034Z,84.27
2018-08-31T00:29:10.198Z,84.25
2018-08-31T00:31:55.994Z,84.33
2018-08-31T00:35:32.064Z,84.03
2018-08-31T00:38:13.089Z,84.40
2018-08-31T00:42:56.677Z,84.69
2018-08-31T00:45:31.823Z,84.79
2018-08-31T00:48:01.122Z,84.67
2018-08-31T00:50:30.757Z,85.21
2018-08-31T00:52:59.845Z,85.40
2018-08-31T00:55:28.842Z,85.30
2018-08-31T00:57:57.802Z,85.57
2018-08-31T01:00:27.001Z,85.49
2018-08-31T01:02:56.058Z,85.47
2018-08-31T01:05:25.897Z,85.12
2018-08-31T01:07:54.669Z,84.92
2018-08-31T01:10:24.673Z,84.65
2018-08-31T01:12:54.740Z,84.51
2018-08-31T01:15:24.023Z,84.40
2018-08-31T01:17:52.758Z,83.01
2018-08-31T01:20:23.413Z,84.08
2018-08-31T01:22:53.159Z,84.25
2018-08-31T01:25:21.868Z,84.13
2018-08-31T01:27:50.539Z,83.85
2018-08-31T01:30:19.593Z,84.22
2018-08-31T01:32:48.759Z,84.00
2018-08-31T01:35:17.823Z,83.90
2018-08-31T01:37:46.719Z,84.98
2018-08-31T01:40:15.525Z,84.08
2018-08-31T01:42:44.939Z,83.66
2018-08-31T01:45:14.272Z,83.45
2018-08-31T01:47:43.353Z,83.79
2018-08-31T01:50:12.663Z,83.28
2018-08-31T01:52:41.698Z,83.37
2018-08-31T01:55:10.974Z,82.40
2018-08-31T01:57:40.330Z,83.10
2018-08-31T02:00:09.519Z,83.05
2018-08-31T02:02:38.929Z,83.15
2018-08-31T02:05:07.577Z,82.69
2018-08-31T02:07:37.067Z,82.03
2018-08-31T02:10:06.307Z,81.86
2018-08-31T02:12:35.129Z,82.36
2018-08-31T02:15:03.726Z,81.64
2018-08-31T02:17:32.663Z,81.43
2018-08-31T02:20:02.315Z,80.72
2018-08-31T02:22:30.990Z,81.46
2018-08-31T02:24:59.633Z,81.20
2018-08-31T02:27:28.369Z,80.77
2018-08-31T02:29:57.073Z,81.00
2018-08-31T02:32:26.450Z,81.65
2018-08-31T02:34:55.644Z,81.91
2018-08-31T02:37:26.001Z,81.79
2018-08-31T02:39:54.995Z,81.82
2018-08-31T02:42:23.824Z,82.10
2018-08-31T02:44:52.465Z,81.81
2018-08-31T02:47:21.845Z,81.40
2018-08-31T02:49:51.094Z,81.00
2018-08-31T02:52:20.080Z,81.16
2018-08-31T02:54:49.331Z,81.00
2018-08-31T02:57:18.538Z,81.29
2018-08-31T02:59:47.472Z,82.29
2018-08-31T03:02:16.269Z,82.13
2018-08-31T03:04:45.150Z,83.41
2018-08-31T03:07:14.833Z,83.76
2018-08-31T03:09:43.835Z,83.55
2018-08-31T03:12:14.026Z,83.10
2018-08-31T03:14:43.679Z,83.15
2018-08-31T03:17:12.281Z,82.72
2018-08-31T03:19:41.271Z,82.40
2018-08-31T03:22:09.944Z,82.74
2018-08-31T03:24:38.940Z,82.57
2018-08-31T03:27:09.169Z,82.96
2018-08-31T03:29:38.153Z,83.01
2018-08-31T03:32:06.844Z,83.26
2018-08-31T03:34:35.523Z,83.63
2018-08-31T03:37:04.345Z,83.72
2018-08-31T03:39:33.536Z,84.73
2018-08-31T03:42:02.934Z,84.84
2018-08-31T03:44:31.765Z,85.47
2018-08-31T03:47:00.664Z,85.82
2018-08-31T03:49:29.963Z,85.38
2018-08-31T03:51:58.550Z,86.02
2018-08-31T03:54:28.048Z,86.45
2018-08-31T03:56:56.954Z,86.64
2018-08-31T03:59:26.103Z,86.35
2018-08-31T04:01:55.613Z,86.92
2018-08-31T04:04:24.728Z,86.67
2018-08-31T04:06:54.025Z,87.04
2018-08-31T04:09:23.635Z,87.60
2018-08-31T04:11:52.309Z,87.67
2018-08-31T04:14:21.173Z,87.65
2018-08-31T04:16:49.821Z,87.93
2018-08-31T04:19:18.913Z,88.21
2018-08-31T04:21:47.718Z,87.81
2018-08-31T04:24:17.150Z,88.23
2018-08-31T04:26:47.259Z,88.24
2018-08-31T04:29:16.467Z,88.15
2018-08-31T04:31:46.300Z,88.06
2018-08-31T04:34:16.303Z,88.01
2018-08-31T04:36:45.424Z,87.76
2018-08-31T04:39:14.384Z,87.67
2018-08-31T04:41:44.621Z,87.77
2018-08-31T04:44:13.579Z,88.24
2018-08-31T04:46:42.386Z,88.17
2018-08-31T04:49:12.494Z,87.95
2018-08-31T04:51:41.283Z,88.26
2018-08-31T04:54:10.044Z,87.90
2018-08-31T04:56:38.919Z,87.74
2018-08-31T04:59:07.760Z,87.67
2018-08-31T05:01:36.442Z,87.99
2018-08-31T05:04:05.243Z,87.80
2018-08-31T05:06:34.727Z,88.08
2018-08-31T05:09:04.514Z,88.04
2018-08-31T05:11:34.597Z,88.01
2018-08-31T05:14:05.390Z,87.81
2018-08-31T05:16:34.228Z,87.43
2018-08-31T05:19:03.275Z,87.74
2018-08-31T05:21:32.281Z,88.49
2018-08-31T05:24:01.034Z,88.57
2018-08-31T05:26:29.981Z,88.98
2018-08-31T05:28:59.430Z,88.11
2018-08-31T05:31:28.314Z,88.28
2018-08-31T05:33:57.036Z,88.16
2018-08-31T05:36:29.071Z,87.64
2018-08-31T05:38:57.930Z,87.74
2018-08-31T05:41:27.182Z,87.65
2018-08-31T05:43:56.661Z,87.08
2018-08-31T05:46:25.721Z,86.58
2018-08-31T05:48:54.450Z,87.26
2018-08-31T05:51:23.086Z,86.31
2018-08-31T05:53:52.324Z,85.98
2018-08-31T05:56:21.625Z,86.21
2018-08-31T05:58:50.892Z,85.80
2018-08-31T06:01:19.678Z,85.10
2018-08-31T06:03:48.396Z,84.23
2018-08-31T06:06:17.175Z,83.46
2018-08-31T06:08:46.636Z,82.74
2018-08-31T06:11:15.456Z,82.32
2018-08-31T06:13:44.069Z,82.69
2018-08-31T06:16:13.484Z,82.25
2018-08-31T06:18:43.606Z,82.57
2018-08-31T06:21:13.785Z,82.26
2018-08-31T06:23:42.586Z,82.15
2018-08-31T06:26:11.242Z,82.12
2018-08-31T06:28:40.574Z,82.52
2018-08-31T06:31:09.756Z,82.36
2018-08-31T06:33:38.344Z,83.85
2018-08-31T06:36:07.140Z,83.58
2018-08-31T06:38:37.545Z,82.94
2018-08-31T06:41:06.561Z,82.67
2018-08-31T06:43:35.964Z,82.26
2018-08-31T06:46:04.689Z,82.22
2018-08-31T06:48:33.275Z,82.16
2018-08-31T06:51:02.461Z,81.51
2018-08-31T06:53:31.935Z,80.96
2018-08-31T06:56:00.619Z,81.62
2018-08-31T06:58:30.171Z,81.01
2018-08-31T07:00:59.120Z,81.36
2018-08-31T07:03:27.731Z,81.29
2018-08-31T07:05:56.394Z,81.81
2018-08-31T07:08:25.125Z,81.67
2018-08-31T07:10:54.015Z,80.55
2018-08-31T07:13:22.684Z,80.27
2018-08-31T07:15:51.999Z,79.16
2018-08-31T07:18:20.671Z,79.16
2018-08-31T07:20:50.141Z,78.90
2018-08-31T07:23:19.054Z,77.74
2018-08-31T07:25:47.652Z,77.61
2018-08-31T07:28:16.732Z,77.27
2018-08-31T07:30:45.316Z,77.13
2018-08-31T07:33:14.327Z,77.11
2018-08-31T07:35:43.566Z,76.04
2018-08-31T07:38:12.745Z,76.94
2018-08-31T07:40:41.672Z,76.79
2018-08-31T07:43:11.297Z,77.70
2018-08-31T07:45:40.110Z,77.15
2018-08-31T07:48:08.980Z,76.28
2018-08-31T07:50:38.291Z,76.75
2018-08-31T07:53:07.191Z,76.27
2018-08-31T07:55:36.341Z,75.89
2018-08-31T07:58:05.940Z,74.81
2018-08-31T08:00:34.890Z,74.54
2018-08-31T08:03:04.150Z,74.46
2018-08-31T08:05:33.251Z,73.55
2018-08-31T08:08:02.121Z,74.17
2018-08-31T08:10:30.836Z,75.43
2018-08-31T08:13:00.099Z,75.30
2018-08-31T08:15:28.962Z,75.10
2018-08-31T08:17:58.687Z,75.76
2018-08-31T08:20:27.730Z,75.81
2018-08-31T08:22:57.010Z,75.82
2018-08-31T08:25:26.332Z,75.42
2018-08-31T08:27:55.272Z,75.04
2018-08-31T08:30:24.246Z,74.98
2018-08-31T08:32:53.096Z,75.04
2018-08-31T08:35:22.117Z,75.63
2018-08-31T08:37:51.926Z,75.51
2018-08-31T08:40:20.708Z,75.40
2018-08-31T08:42:49.356Z,75.60
2018-08-31T08:45:18.333Z,75.49
2018-08-31T08:47:47.126Z,75.52
2018-08-31T08:50:16.255Z,75.57
2018-08-31T08:52:45.752Z,75.79
2018-08-31T08:55:14.846Z,75.79
2018-08-31T08:57:43.696Z,76.20
2018-08-31T09:00:12.531Z,76.43
2018-08-31T09:02:42.786Z,75.22
2018-08-31T09:05:11.403Z,75.65
2018-08-31T09:07:40.288Z,74.67
2018-08-31T09:10:09.222Z,75.01
2018-08-31T09:12:38.058Z,74.82
2018-08-31T09:15:07.031Z,74.25
2018-08-31T09:17:35.886Z,74.50
2018-08-31T09:20:04.999Z,74.10
2018-08-31T09:22:34.490Z,73.99
2018-08-31T09:25:03.500Z,73.83
2018-08-31T09:27:33.707Z,74.66
2018-08-31T09:30:03.142Z,75.35
2018-08-31T09:32:33.012Z,75.77
2018-08-31T09:35:02.495Z,76.29
2018-08-31T09:37:31.800Z,76.65
2018-08-31T09:40:01.929Z,76.87
2018-08-31T09:42:33.166Z,77.07
2018-08-31T09:45:01.782Z,77.78
2018-08-31T09:47:30.458Z,77.65
2018-08-31T09:49:59.207Z,77.74
2018-08-31T09:52:27.892Z,77.75
2018-08-31T09:54:58.123Z,78.95
2018-08-31T09:57:26.967Z,80.15
2018-08-31T09:59:56.477Z,80.84
2018-08-31T10:02:31.581Z,81.33
2018-08-31T10:05:00.206Z,82.37
2018-08-31T10:07:29.177Z,83.57
2018-08-31T10:09:58.446Z,85.03
2018-08-31T10:12:27.496Z,85.12
2018-08-31T10:14:56.371Z,85.95
2018-08-31T10:17:26.651Z,85.50
2018-08-31T10:19:55.287Z,85.52
2018-08-31T10:22:24.613Z,85.92
2018-08-31T10:24:53.385Z,86.94
2018-08-31T10:27:23.099Z,86.85
2018-08-31T10:29:52.052Z,89.08
2018-08-31T10:32:22.505Z,89.33
2018-08-31T10:34:51.440Z,89.57
2018-08-31T10:37:20.445Z,89.33
2018-08-31T10:39:49.954Z,89.66
2018-08-31T10:42:19.202Z,89.14
2018-08-31T10:44:48.536Z,89.14
2018-08-31T10:47:17.651Z,88.39
2018-08-31T10:49:46.556Z,88.47
2018-08-31T10:52:15.373Z,88.97
2018-08-31T10:54:45.261Z,89.34
2018-08-31T10:57:14.144Z,91.42
2018-08-31T10:59:44.918Z,91.14
2018-08-31T11:02:13.602Z,90.33
2018-08-31T11:04:42.376Z,90.37
2018-08-31T11:07:11.094Z,90.23
2018-08-31T11:09:39.889Z,89.70
2018-08-31T11:12:08.780Z,89.65
2018-08-31T11:14:38.070Z,89.39
2018-08-31T11:17:07.305Z,89.21
2018-08-31T11:19:36.150Z,87.60
2018-08-31T11:22:05.717Z,88.44
2018-08-31T11:24:34.592Z,88.15
2018-08-31T11:27:03.141Z,87.36
2018-08-31T11:29:32.576Z,86.90
2018-08-31T11:32:02.217Z,86.96
2018-08-31T11:34:30.951Z,87.17
2018-08-31T11:37:00.252Z,87.18
2018-08-31T11:39:28.962Z,88.47
2018-08-31T11:41:58.507Z,88.06
2018-08-31T11:44:27.728Z,88.76
2018-08-31T11:46:57.032Z,88.50
2018-08-31T11:49:25.893Z,87.72
2018-08-31T11:51:54.778Z,86.59
2018-08-31T11:54:23.687Z,86.18
2018-08-31T11:56:52.633Z,86.42
2018-08-31T11:59:21.423Z,87.00
2018-08-31T12:01:52.369Z,86.85
2018-08-31T12:04:21.427Z,86.71
2018-08-31T12:06:50.803Z,87.49
2018-08-31T12:09:20.217Z,87.98
2018-08-31T12:11:49.191Z,87.91
2018-08-31T12:14:18.158Z,87.84
2018-08-31T12:16:46.839Z,87.18
2018-08-31T12:19:16.968Z,87.83
2018-08-31T12:21:46.069Z,89.18
2018-08-31T12:24:14.993Z,87.02
2018-08-31T12:26:46.444Z,86.96
2018-08-31T12:29:15.293Z,86.03
2018-08-31T12:31:43.999Z,87.10
2018-08-31T12:34:12.677Z,87.00
2018-08-31T12:36:41.513Z,87.24
2018-08-31T12:39:11.316Z,86.85
2018-08-31T12:41:40.385Z,87.64
2018-08-31T12:44:09.703Z,87.80
2018-08-31T12:46:39.362Z,88.14
2018-08-31T12:49:08.189Z,88.15
2018-08-31T12:51:36.963Z,89.24
2018-08-31T12:54:05.641Z,89.91
2018-08-31T12:56:35.058Z,89.68
2018-08-31T12:59:04.416Z,89.81
2018-08-31T13:01:33.276Z,90.28
2018-08-31T13:04:03.947Z,90.15
2018-08-31T13:06:32.733Z,88.31
2018-08-31T13:09:02.937Z,87.71
2018-08-31T13:11:31.678Z,88.19
2018-08-31T13:14:00.734Z,88.04
2018-08-31T13:16:29.932Z,88.13
2018-08-31T13:18:59.162Z,88.92
2018-08-31T13:21:27.768Z,88.71
2018-08-31T13:23:57.464Z,88.56
2018-08-31T13:26:26.517Z,88.48
2018-08-31T13:28:56.013Z,89.19
2018-08-31T13:31:24.864Z,88.71
2018-08-31T13:33:53.689Z,88.16
2018-08-31T13:36:22.477Z,87.65
2018-08-31T13:38:51.336Z,88.13
2018-08-31T13:41:20.227Z,86.66
2018-08-31T13:43:49.446Z,87.92
2018-08-31T13:46:18.618Z,87.43
2018-08-31T13:48:47.814Z,88.47
2018-08-31T13:51:16.504Z,87.71
2018-08-31T13:53:45.196Z,87.54
2018-08-31T13:56:14.748Z,87.39
2018-08-31T13:58:43.494Z,88.27
2018-08-31T14:01:13.132Z,87.16
2018-08-31T14:03:42.165Z,88.47
2018-08-31T14:06:11.892Z,88.14
2018-08-31T14:08:40.674Z,87.28
2018-08-31T14:11:10.598Z,86.77
2018-08-31T14:13:39.397Z,87.62
2018-08-31T14:16:08.056Z,87.49
2018-08-31T14:18:36.763Z,87.52
2018-08-31T14:21:05.894Z,89.04
2018-08-31T14:23:34.679Z,89.12
2018-08-31T14:26:03.985Z,89.96
2018-08-31T14:28:33.478Z,89.04
2018-08-31T14:31:02.453Z,86.34
2018-08-31T14:33:31.458Z,86.26
2018-08-31T14:36:00.234Z,87.45
2018-08-31T14:38:29.463Z,88.25
2018-08-31T14:40:58.512Z,88.99
2018-08-31T14:43:27.208Z,89.31
2018-08-31T14:45:56.099Z,89.84
2018-08-31T14:48:25.069Z,88.93
2018-08-31T14:50:54.764Z,88.68
2018-08-31T14:53:23.573Z,88.07
2018-08-31T14:55:52.187Z,88.52
2018-08-31T14:58:21.255Z,88.32
2018-08-31T15:00:50.026Z,87.51
2018-08-31T15:03:19.690Z,87.90
2018-08-31T15:05:48.958Z,87.98
2018-08-31T15:08:17.514Z,88.21
2018-08-31T15:10:46.442Z,88.71
2018-08-31T15:13:16.697Z,88.81
2018-08-31T15:15:45.762Z,88.18
2018-08-31T15:18:14.973Z,89.94
2018-08-31T15:20:44.228Z,91.10
2018-08-31T15:23:13.405Z,90.85
2018-08-31T15:25:42.816Z,90.96
2018-08-31T15:28:11.489Z,90.44
2018-08-31T15:30:42.552Z,90.44
2018-08-31T15:33:11.423Z,90.62
2018-08-31T15:35:40.126Z,90.53
2018-08-31T15:38:09.740Z,90.95
2018-08-31T15:40:38.841Z,91.59
2018-08-31T15:43:08.524Z,92.51
2018-08-31T15:45:37.567Z,91.85
2018-08-31T15:48:07.640Z,91.72
2018-08-31T15:50:38.758Z,93.09
2018-08-31T15:53:08.035Z,93.33
2018-08-31T15:55:37.582Z,94.66
2018-08-31T15:58:07.477Z,95.72
2018-08-31T16:00:37.698Z,95.73
2018-08-31T16:03:07.609Z,96.15
2018-08-31T16:05:36.386Z,96.06
2018-08-31T16:08:05.407Z,95.56
2018-08-31T16:10:37.009Z,96.36
2018-08-31T16:13:06.873Z,96.44
2018-08-31T16:15:35.828Z,96.16
2018-08-31T16:18:04.709Z,96.12
2018-08-31T16:20:33.702Z,96.87
2018-08-31T16:23:03.495Z,96.52
2018-08-31T16:25:32.320Z,97.36
2018-08-31T16:28:01.645Z,97.79
2018-08-31T16:30:31.741Z,97.88
2018-08-31T16:33:00.478Z,98.23
2018-08-31T16:35:29.242Z,97.88
2018-08-31T16:37:58.035Z,98.54
2018-08-31T16:40:26.720Z,99.40
2018-08-31T16:42:55.450Z,99.31
2018-08-31T16:45:24.511Z,99.48
2018-08-31T16:47:53.451Z,99.46
2018-08-31T16:50:24.019Z,99.78
2018-08-31T16:52:53.249Z,100.00
2018-08-31T16:55:23.379Z,99.86
2018-08-31T16:57:52.363Z,99.71
2018-08-31T17:00:21.370Z,99.89
2018-08-31T17:02:50.313Z,99.73
2018-08-31T17:05:20.005Z,99.68
2018-08-31T17:07:48.865Z,99.93
2018-08-31T17:10:19.059Z,99.90
2018-08-31T17:12:49.008Z,99.40
2018-08-31T17:15:18.035Z,99.43
2018-08-31T17:17:47.685Z,99.00
2018-08-31T17:20:16.728Z,99.42
2018-08-31T17:22:45.980Z,99.56
2018-08-31T17:25:16.463Z,99.32
2018-08-31T17:27:50.344Z,99.79
2018-08-31T17:30:21.548Z,99.78
2018-08-31T17:32:55.754Z,99.85
2018-08-31T17:35:29.775Z,99.97
2018-08-31T17:38:00.809Z,100.00
2018-08-31T17:40:31.233Z,100.00
2018-08-31T17:43:01.408Z,100.00
2018-08-31T17:45:30.373Z,100.00
2018-08-31T17:47:59.457Z,100.00
2018-08-31T17:50:29.539Z,100.00
2018-08-31T17:52:59.109Z,100.00
2018-08-31T17:55:29.299Z,100.00
2018-08-31T17:58:00.203Z,100.00
2018-08-31T18:00:29.403Z,100.00
2018-08-31T18:02:58.330Z,100.00
2018-08-31T18:05:27.662Z,100.00
2018-08-31T18:07:56.662Z,100.00
2018-08-31T18:10:26.236Z,100.00
2018-08-31T18:12:55.288Z,100.00
2018-08-31T18:15:24.015Z,100.00
2018-08-31T18:17:53.414Z,100.00
2018-08-31T18:20:22.953Z,100.00
2018-08-31T18:22:51.935Z,100.00
2018-08-31T18:25:20.952Z,100.00
2018-08-31T18:27:50.038Z,100.00
2018-08-31T18:30:19.428Z,100.00
2018-08-31T18:32:48.489Z,100.00
2018-08-31T18:35:18.263Z,100.00
2018-08-31T18:37:47.112Z,100.00
2018-08-31T18:40:16.279Z,100.00
2018-08-31T18:42:45.372Z,100.00
2018-08-31T18:45:14.593Z,100.00
2018-08-31T18:47:43.704Z,100.00
2018-08-31T18:50:12.660Z,100.00
2018-08-31T18:52:42.230Z,100.00
2018-08-31T18:55:11.446Z,100.00
2018-08-31T18:57:40.253Z,100.00
2018-08-31T19:00:09.804Z,100.00
2018-08-31T19:02:38.947Z,100.00
2018-08-31T19:05:07.669Z,100.00
2018-08-31T19:07:37.730Z,100.00
2018-08-31T19:10:06.804Z,100.00
2018-08-31T19:12:36.121Z,100.00
2018-08-31T19:15:06.539Z,100.00
2018-08-31T19:17:35.443Z,100.00
2018-08-31T19:20:04.883Z,100.00
2018-08-31T19:22:33.691Z,100.00
2018-08-31T19:25:02.598Z,100.00
2018-08-31T19:27:33.208Z,100.00
2018-08-31T19:30:03.415Z,100.00
2018-08-31T19:32:32.820Z,100.00
2018-08-31T19:35:02.509Z,100.00
2018-08-31T19:37:32.884Z,100.00
2018-08-31T19:40:02.406Z,100.00
2018-08-31T19:42:32.676Z,100.00
2018-08-31T19:45:02.096Z,100.00
2018-08-31T19:47:31.379Z,100.00
2018-08-31T19:50:00.830Z,100.00
2018-08-31T19:52:31.550Z,100.00
2018-08-31T19:55:01.410Z,100.00
2018-08-31T19:57:31.189Z,100.00
2018-08-31T20:00:00.447Z,100.00
2018-08-31T20:02:30.429Z,100.00
2018-08-31T20:04:59.829Z,100.00
2018-08-31T20:07:30.774Z,100.00
2018-08-31T20:10:00.250Z,100.00
2018-08-31T20:12:29.246Z,100.00
2018-08-31T20:14:59.042Z,100.00
2018-08-31T20:17:28.594Z,100.00
2018-08-31T20:19:57.865Z,100.00
2018-08-31T20:22:27.114Z,100.00
2018-08-31T20:24:57.139Z,100.00
2018-08-31T20:27:26.528Z,100.00
2018-08-31T20:29:55.735Z,100.00
2018-08-31T20:32:26.925Z,100.00
2018-08-31T20:34:56.173Z,100.00
2018-08-31T20:37:27.571Z,100.00
2018-08-31T20:39:57.665Z,100.00
2018-08-31T20:42:28.790Z,100.00
2018-08-31T20:44:58.064Z,100.00
2018-08-31T20:47:27.446Z,100.00
2018-08-31T20:49:57.289Z,100.00
2018-08-31T20:52:26.477Z,100.00
2018-08-31T20:54:57.184Z,100.00
2018-08-31T20:57:26.286Z,100.00
2018-08-31T20:59:56.178Z,100.00
2018-08-31T21:02:25.442Z,100.00
2018-08-31T21:04:54.435Z,100.00
2018-08-31T21:07:24.140Z,100.00
2018-08-31T21:09:53.158Z,100.00
2018-08-31T21:12:22.279Z,100.00
2018-08-31T21:14:51.569Z,100.00
2018-08-31T21:17:21.925Z,100.00
2018-08-31T21:19:50.980Z,100.00
2018-08-31T21:22:20.706Z,100.00
2018-08-31T21:24:50.186Z,100.00
2018-08-31T21:27:19.265Z,100.00
2018-08-31T21:29:48.269Z,100.00
2018-08-31T21:32:17.837Z,100.00
2018-08-31T21:34:46.660Z,100.00
2018-08-31T21:37:15.445Z,100.00
2018-08-31T21:39:44.187Z,100.00
2018-08-31T21:42:13.802Z,100.00
2018-08-31T21:44:42.981Z,100.00
2018-08-31T21:47:12.014Z,100.00
2018-08-31T21:49:41.291Z,100.00
2018-08-31T21:52:10.845Z,100.00
2018-08-31T21:54:39.948Z,100.00
2018-08-31T21:57:09.043Z,100.00
2018-08-31T21:59:38.380Z,100.00
2018-08-31T22:02:07.456Z,100.00
2018-08-31T22:04:36.876Z,100.00
2018-08-31T22:07:06.055Z,100.00
2018-08-31T22:09:35.229Z,100.00
2018-08-31T22:12:04.943Z,100.00
2018-08-31T22:14:33.804Z,100.00
2018-08-31T22:17:02.749Z,100.00
2018-08-31T22:19:31.825Z,100.00
2018-08-31T22:22:01.429Z,100.00
2018-08-31T22:24:30.433Z,100.00
2018-08-31T22:26:59.885Z,100.00
2018-08-31T22:29:28.948Z,100.00
2018-08-31T22:31:57.955Z,100.00
2018-08-31T22:34:26.529Z,100.00
2018-08-31T22:36:55.394Z,100.00
2018-08-31T22:39:24.211Z,100.00
2018-08-31T22:41:53.060Z,100.00
2018-08-31T22:44:22.243Z,100.00
2018-08-31T22:46:51.673Z,100.00
2018-08-31T22:49:20.830Z,100.00
2018-08-31T22:51:49.835Z,100.00
2018-08-31T22:54:18.463Z,100.00
2018-08-31T22:56:47.534Z,100.00
2018-08-31T22:59:16.550Z,100.00
2018-08-31T23:01:45.400Z,100.00
2018-08-31T23:04:14.119Z,100.00
2018-08-31T23:06:43.316Z,100.00
2018-08-31T23:09:13.152Z,100.00
2018-08-31T23:11:42.164Z,100.00
2018-08-31T23:14:11.003Z,100.00
2018-08-31T23:16:40.630Z,100.00
2018-08-31T23:19:09.515Z,100.00
2018-08-31T23:21:38.464Z,100.00
2018-08-31T23:24:07.103Z,100.00
2018-08-31T23:26:36.475Z,100.00
2018-08-31T23:29:05.632Z,100.00
2018-08-31T23:31:34.635Z,100.00
2018-08-31T23:34:05.604Z,100.00
2018-08-31T23:36:34.241Z,100.00
2018-08-31T23:39:03.386Z,100.00
2018-08-31T23:41:32.059Z,100.00
2018-08-31T23:44:01.615Z,100.00
2018-08-31T23:46:30.535Z,100.00
2018-08-31T23:49:00.289Z,100.00
2018-08-31T23:51:29.571Z,100.00
2018-08-31T23:53:58.251Z,100.00
2018-08-31T23:56:28.410Z,100.00
2018-08-31T23:58:57.124Z,100.00
